Bookmark and Share
Track history (hours):
 

Queen Of Cowichan

Last reported at 2014-Apr-21 02:33 UTC. Time now 2014-Apr-21 03:13 UTC.
Position N 49°14' W 123°49'.

Length 139 m; draft 5.5 m.

Type: Passenger vessel. MMSI: 316001251.

NotesDate/timePositionNaut miles runAvg speedWind from/ knotsBaromVisibWave heightAir tempDewpointWater temp
2014-Apr-21 02:33N 49°14' W 123°49'6 5.9
2014-Apr-21 01:33N 49°12' W 123°57'2019.8
2014-Apr-21 00:33N 49°19' W 123°28'9 8.9
2014-Apr-20 23:33N 49°23' W 123°16'1918.6
2014-Apr-20 22:34N 49°15' W 123°42'1010.5
2014-Apr-20 21:33N 49°12' W 123°57'1313.0
2014-Apr-20 20:34N 49°17' W 123°39'1615.9
2014-Apr-20 19:33N 49°23' W 123°16'1111.2
2014-Apr-20 18:34N 49°17' W 123°31'1817.8
2014-Apr-20 17:33N 49°12' W 123°57'10 9.8
2014-Apr-20 16:34N 49°16' W 123°44'1919.2
2014-Apr-20 15:34N 49°23' W 123°16'9 8.9
2014-Apr-20 14:33N 49°18' W 123°28'2020.0
2014-Apr-20 13:34N 49°12' W 123°57'1 0.5
2014-Apr-20 12:21N 49°12' W 123°57'0 0.0
2014-Apr-20 11:33N 49°12' W 123°57'0 0.0
2014-Apr-20 10:30N 49°12' W 123°57'0 0.0
2014-Apr-20 09:33N 49°12' W 123°57'0 0.0
2014-Apr-20 08:33N 49°12' W 123°57'0 0.0
2014-Apr-20 07:30N 49°12' W 123°57'0 0.0
2014-Apr-20 05:27N 49°12' W 123°57'0 0.0
2014-Apr-20 04:33N 49°12' W 123°57'0 0.0
2014-Apr-20 02:33N 49°12' W 123°57'0 0.0
2014-Apr-19 21:27N 49°12' W 123°57'0 0.0
2014-Apr-19 20:25N 49°12' W 123°57'5 5.3
2014-Apr-19 19:33N 49°15' W 123°52'5 4.4
2014-Apr-19 18:31N 49°12' W 123°57'3 3.1
2014-Apr-19 17:34N 49°13' W 123°54'1817.7
2014-Apr-19 16:33N 49°18' W 123°28'9 8.7
2014-Apr-19 15:34N 49°23' W 123°16'1514.9
2014-Apr-19 14:34N 49°15' W 123°35'1514.8
2014-Apr-19 13:33N 49°12' W 123°57'0 0.1
2014-Apr-19 12:25N 49°12' W 123°57'0 0.0
2014-Apr-19 09:31N 49°12' W 123°57'0 0.0
2014-Apr-19 08:25N 49°12' W 123°57'0 0.0
2014-Apr-19 07:31N 49°12' W 123°57'0 0.0
2014-Apr-19 06:31N 49°12' W 123°57'9 9.1
2014-Apr-19 05:33N 49°16' W 123°45'1919.3
2014-Apr-19 04:34N 49°23' W 123°18'8 7.9
2014-Apr-19 03:33N 49°18' W 123°28'2019.9
2014-Apr-19 02:33N 49°12' W 123°57'9 9.0
2014-Apr-19 01:33N 49°16' W 123°44'1918.9
2014-Apr-19 00:34N 49°23' W 123°18'3 3.4
2014-Apr-18 23:33N 49°20' W 123°21'2019.8
2014-Apr-18 22:33N 49°14' W 123°49'5 5.5
2014-Apr-18 21:33N 49°12' W 123°57'1919.5
2014-Apr-18 20:33N 49°18' W 123°29'9 9.3
2014-Apr-18 19:33N 49°23' W 123°16'1615.6
2014-Apr-18 18:33N 49°16' W 123°38'1313.4
2014-Apr-18 17:33N 49°12' W 123°57'1312.8
2014-Apr-18 16:33N 49°17' W 123°39'1616.2
2014-Apr-18 15:33N 49°23' W 123°16'8 8.3
2014-Apr-18 14:33N 49°18' W 123°27'2020.1
2014-Apr-18 13:33N 49°12' W 123°57'1 0.8
2014-Apr-18 12:31N 49°12' W 123°57'0 0.0
2014-Apr-18 11:19N 49°12' W 123°57'0 0.0
2014-Apr-18 10:31N 49°12' W 123°57'0 0.0
2014-Apr-18 06:25N 49°12' W 123°57'1112.8
2014-Apr-18 05:33N 49°16' W 123°42'1817.8
2014-Apr-18 04:33N 49°23' W 123°17'7 6.8
2014-Apr-18 03:34N 49°18' W 123°23'2020.3
2014-Apr-18 02:33N 49°13' W 123°53'2 1.5
2014-Apr-18 01:33N 49°14' W 123°51'2019.7
2014-Apr-18 00:33N 49°20' W 123°22'5 5.1
2014-Apr-17 23:33N 49°23' W 123°17'1919.2
2014-Apr-17 22:33N 49°15' W 123°44'10 9.4
2014-Apr-17 21:32N 49°12' W 123°57'1212.7
2014-Apr-17 20:34N 49°17' W 123°40'1616.5
2014-Apr-17 19:33N 49°23' W 123°16'1010.3
2014-Apr-17 18:33N 49°17' W 123°30'1918.7
2014-Apr-17 17:33N 49°12' W 123°57'10 9.8
2014-Apr-17 16:33N 49°16' W 123°44'1919.2
2014-Apr-17 15:33N 49°23' W 123°16'8 8.4
2014-Apr-17 14:33N 49°18' W 123°27'2020.1
2014-Apr-17 13:34N 49°12' W 123°56'1 1.0
2014-Apr-17 12:29N 49°12' W 123°57'0 0.0
2014-Apr-17 11:32N 49°12' W 123°57'0 0.0
2014-Apr-17 10:23N 49°12' W 123°57'0 0.0
2014-Apr-17 09:29N 49°12' W 123°57'0 0.0
2014-Apr-17 08:23N 49°12' W 123°57'1 0.5
2014-Apr-17 05:34N 49°13' W 123°56'2020.0
2014-Apr-17 04:34N 49°17' W 123°26'7 7.0
2014-Apr-17 03:34N 49°22' W 123°19'1919.0
2014-Apr-17 02:34N 49°15' W 123°45'7 6.8
2014-Apr-17 01:33N 49°13' W 123°55'2020.0
2014-Apr-17 00:33N 49°19' W 123°26'8 7.6
2014-Apr-16 23:34N 49°23' W 123°17'1918.7
2014-Apr-16 22:34N 49°15' W 123°43'1010.1
2014-Apr-16 21:33N 49°12' W 123°57'1514.8
2014-Apr-16 20:34N 49°17' W 123°37'1414.2
2014-Apr-16 19:33N 49°23' W 123°16'1111.2
2014-Apr-16 18:33N 49°17' W 123°31'1817.9
2014-Apr-16 17:33N 49°12' W 123°57'1212.0
2014-Apr-16 16:33N 49°17' W 123°41'1717.1
2014-Apr-16 15:34N 49°23' W 123°16'9 9.2
2014-Apr-16 14:34N 49°18' W 123°28'2019.6
2014-Apr-16 13:33N 49°12' W 123°57'0 0.2
2014-Apr-16 11:31N 49°12' W 123°57'0 0.0
2014-Apr-16 10:19N 49°12' W 123°57'0 0.0
2014-Apr-16 09:13N 49°12' W 123°57'0 0.0
2014-Apr-16 07:25N 49°12' W 123°57'4 1.9
2014-Apr-16 05:33N 49°14' W 123°53'2019.7
2014-Apr-16 04:34N 49°19' W 123°24'3 2.8
2014-Apr-16 03:34N 49°20' W 123°20'1919.3
2014-Apr-16 02:33N 49°15' W 123°48'3 2.7
2014-Apr-16 01:33N 49°14' W 123°52'2019.7
2014-Apr-16 00:34N 49°19' W 123°23'3 3.0
2014-Apr-15 23:33N 49°21' W 123°20'1919.4
2014-Apr-15 22:33N 49°14' W 123°48'5 5.1
2014-Apr-15 21:34N 49°13' W 123°55'2019.9
2014-Apr-15 20:34N 49°19' W 123°26'7 7.4
2014-Apr-15 19:34N 49°23' W 123°17'1818.3
2014-Apr-15 18:34N 49°15' W 123°42'1110.7
2014-Apr-15 17:33N 49°12' W 123°57'1818.4
2014-Apr-15 16:33N 49°18' W 123°31'1110.6
2014-Apr-15 15:33N 49°23' W 123°16'1615.9
2014-Apr-15 14:33N 49°16' W 123°38'13 6.6
2014-Apr-15 12:34N 49°12' W 123°57'0 0.0
2014-Apr-15 11:32N 49°12' W 123°57'0 0.0
2014-Apr-15 09:32N 49°12' W 123°57'20 3.4
2014-Apr-15 03:34N 49°19' W 123°28'8 7.8
2014-Apr-15 02:34N 49°23' W 123°18'1919.2
2014-Apr-15 01:34N 49°15' W 123°45'7 7.1
2014-Apr-15 00:34N 49°13' W 123°55'2019.6
2014-Apr-14 23:34N 49°18' W 123°26'8 8.1
2014-Apr-14 22:34N 49°23' W 123°17'1918.9
2014-Apr-14 21:34N 49°15' W 123°43'10 9.8
2014-Apr-14 20:33N 49°12' W 123°57'1717.1
2014-Apr-14 19:34N 49°18' W 123°33'1212.1
2014-Apr-14 18:34N 49°23' W 123°16'1211.6
2014-Apr-14 17:34N 49°17' W 123°32'1717.2
2014-Apr-14 16:33N 49°12' W 123°57'1212.0
2014-Apr-14 15:34N 49°16' W 123°41'1716.2
2014-Apr-14 14:31N 49°23' W 123°16'9 9.4
2014-Apr-14 13:34N 49°18' W 123°28'2010.0
2014-Apr-14 11:33N 49°12' W 123°57'0 0.0
2014-Apr-14 10:33N 49°12' W 123°57'0 0.0
2014-Apr-14 09:30N 49°12' W 123°57'0 0.0
2014-Apr-14 08:33N 49°12' W 123°57'0 0.0
2014-Apr-14 07:30N 49°12' W 123°57'0 0.0
2014-Apr-14 06:30N 49°12' W 123°57'10 1.2
2014-Apr-13 22:33N 49°15' W 123°43'10 9.5
2014-Apr-13 21:33N 49°12' W 123°57'1514.9
2014-Apr-13 20:34N 49°17' W 123°36'1414.0
2014-Apr-13 19:33N 49°23' W 123°16'1010.3
2014-Apr-13 18:34N 49°17' W 123°30'1918.8
2014-Apr-13 17:33N 49°12' W 123°57'1110.7
2014-Apr-13 16:33N 49°16' W 123°42'1818.4
2014-Apr-13 15:34N 49°23' W 123°16'9 9.5
2014-Apr-13 14:34N 49°17' W 123°28'2019.7
2014-Apr-13 13:33N 49°12' W 123°57'0 0.4
2014-Apr-13 12:34N 49°12' W 123°57'0 0.0
2014-Apr-13 11:27N 49°12' W 123°57'0 0.0
2014-Apr-13 10:30N 49°12' W 123°57'0 0.0
2014-Apr-13 09:30N 49°12' W 123°57'0 0.0
2014-Apr-13 08:16N 49°12' W 123°57'0 0.0
2014-Apr-13 07:34N 49°12' W 123°57'3 1.6
2014-Apr-13 05:34N 49°13' W 123°53'2019.7
2014-Apr-13 04:34N 49°19' W 123°24'3 2.8
2014-Apr-13 03:33N 49°20' W 123°20'2019.9
2014-Apr-13 02:34N 49°14' W 123°49'5 4.7
2014-Apr-13 01:34N 49°12' W 123°56'1919.4
2014-Apr-13 00:34N 49°19' W 123°28'9 8.8
2014-Apr-12 23:34N 49°23' W 123°16'1818.1
2014-Apr-12 22:33N 49°16' W 123°42'1110.9
2014-Apr-12 21:33N 49°12' W 123°57'1616.2
2014-Apr-12 20:33N 49°18' W 123°34'1312.7
2014-Apr-12 19:33N 49°23' W 123°16'1313.3
2014-Apr-12 18:34N 49°16' W 123°34'1615.8
2014-Apr-12 17:33N 49°12' W 123°57'1212.1
2014-Apr-12 16:34N 49°17' W 123°40'1716.9
2014-Apr-12 15:33N 49°23' W 123°16'9 9.1
2014-Apr-12 14:34N 49°18' W 123°28'2019.9
2014-Apr-12 13:33N 49°12' W 123°57'0 0.1
2014-Apr-12 10:16N 49°12' W 123°57'0 0.0
2014-Apr-12 09:28N 49°12' W 123°57'0 0.0
2014-Apr-12 08:28N 49°12' W 123°57'0 0.0
2014-Apr-12 07:07N 49°12' W 123°57'0 0.0
2014-Apr-12 06:31N 49°12' W 123°57'9 9.9
2014-Apr-12 05:34N 49°15' W 123°44'1919.2
2014-Apr-12 04:33N 49°23' W 123°17'6 6.0
2014-Apr-12 03:34N 49°19' W 123°23'2020.2
2014-Apr-12 02:33N 49°13' W 123°53'2 1.9
2014-Apr-12 01:34N 49°14' W 123°50'1919.4
2014-Apr-12 00:33N 49°20' W 123°22'4 4.1
2014-Apr-11 23:33N 49°23' W 123°18'1919.2
2014-Apr-11 22:34N 49°15' W 123°45'9 8.8
2014-Apr-11 21:33N 49°12' W 123°57'1616.5
2014-Apr-11 20:33N 49°18' W 123°34'1212.4
2014-Apr-11 19:33N 49°23' W 123°16'1111.1
2014-Apr-11 18:33N 49°17' W 123°31'1818.0
2014-Apr-11 17:33N 49°12' W 123°57'1110.8
2014-Apr-11 16:33N 49°16' W 123°42'1818.1
2014-Apr-11 15:33N 49°23' W 123°16'9 9.1
2014-Apr-11 14:33N 49°18' W 123°28'2019.7
2014-Apr-11 13:33N 49°12' W 123°57'1 0.5
2014-Apr-11 12:22N 49°12' W 123°57'0 0.0
2014-Apr-11 11:28N 49°12' W 123°57'0 0.0
2014-Apr-11 10:31N 49°12' W 123°57'0 0.0
2014-Apr-11 09:22N 49°12' W 123°57'0 0.0
2014-Apr-11 08:16N 49°12' W 123°57'0 0.0
2014-Apr-11 06:28N 49°12' W 123°57'1 0.7
2014-Apr-11 05:34N 49°12' W 123°57'2020.0
2014-Apr-11 04:33N 49°19' W 123°28'7 7.2
2014-Apr-11 03:34N 49°22' W 123°18'2019.5
2014-Apr-11 02:33N 49°15' W 123°46'  

Dump ship's entire track history

sailing weather and tide predictions

Queen Of Cowichan — CZ4990 — position and weather